Airfield :
LOGIN :

Register | Disclaimer

   EN    FR    IT 

 










Legend :    VFR   Marginal VFR   IFR   Intensive IFR   Very Intensive IFR
Visi :
Ceiling :
>= 8 km
>= 3000ft
5 to 8 km
1000 to 3000 ft
1500m to 5 km
500 to 1000 ft
800 to 1500m
200 to 500 ft
< 800m
< 200 ft
Symbols :   Thunderstorms  Fog  Heavy snow  Heavy precipitations  Wind > 20 kt
SIGMETs :     Misc.  Thunderstorms  Icing  Turbulence  Mountain Waves  Volcanic Ashes







- Airport Elevation : 40 ft
- IATA code : RMI


LIPR - Federico Fellini Int. Rimini

CURRENT METAR :
  • 230315Z 16004KT 9999 -RA FEW030TCU 20/19 Q1009 RETS

EXPIRED METARs :
  • 230245Z 21004KT 9999 -TSRA SCT025CB SCT040 20/20 Q1009 RETS
  • 230215Z 01010KT 9999 -TSRA SCT025CB BKN040 21/20 Q1009 RETS
  • 230145Z 33017G29KT 6000 TSRA BKN015CB SCT025TCU 22/21 Q1010
  • 230115Z 25004KT 9999 FEW025TCU 22/20 Q1009
  • 230045Z 24002KT 9999 FEW025TCU 22/20 Q1009

TAF TAF LIPR
Valid from the 23 at 03:00 until the 23 at 12:00 UTC


230200Z 2303/2312 33015KT 9999 BKN015 SCT030
TEMPO 2303/2306 33020G35KT 5000 TSRA BKN015CB SCT025TCU
No reported NOTAMs for that airfield.
2 SIGMETs reported for the Milano FIR (LIMM) :
 
Severe turbulence
LIMM SIGMET 4 VALID 222330/230330 LIIP
LIMM MILANO FIR SEV TURB FCST ENTIRE FIR ABV FL280 STNR WKN=
Embedded thunderstorms and hail
LIMM SIGMET 1 VALID 230050/230450 LIIP
LIMM MILANO FIR EMBD TSGR FCST ESE OF LINE N4334 E00737 - N4629 E00950 TOP ABV FL380 STNR NC=



MET'MAP, your aeronautical weather chart ! - Copyright ORBIFLY December 2007 - Disclaimer

ORBIFLY MET'MAP TEAM :

Programming & Development : Alexandra Zaïnal
Concept & Development : Baudouin d'Aumeries
Co-Development & Prog : Marc-Olivier Méhu
Technical & hardware support : Manuel Goepfert

Contact : metmap@orbifly.com




SOURCES & CREDITS :

   NOAA